createdAt,value
2023-01-19T00:00:52.514Z,100.00
2023-01-19T00:03:16.222Z,100.00
2023-01-19T00:05:28.907Z,100.00
2023-01-19T00:07:41.920Z,100.00
2023-01-19T00:09:54.537Z,100.00
2023-01-19T00:12:07.286Z,100.00
2023-01-19T00:14:19.838Z,100.00
2023-01-19T00:16:32.436Z,100.00
2023-01-19T00:18:46.020Z,100.00
2023-01-19T00:20:58.536Z,100.00
2023-01-19T00:23:11.051Z,100.00
2023-01-19T00:25:23.610Z,100.00
2023-01-19T00:27:36.134Z,100.00
2023-01-19T00:29:48.729Z,100.00
2023-01-19T00:32:02.771Z,100.00
2023-01-19T00:34:15.499Z,100.00
2023-01-19T00:36:28.296Z,100.00
2023-01-19T00:38:40.914Z,100.00
2023-01-19T00:40:53.487Z,100.00
2023-01-19T00:43:06.022Z,100.00
2023-01-19T00:45:21.705Z,100.00
2023-01-19T00:47:34.239Z,100.00
2023-01-19T00:49:46.749Z,100.00
2023-01-19T00:51:59.441Z,100.00
2023-01-19T00:54:11.958Z,100.00
2023-01-19T00:56:24.941Z,100.00
2023-01-19T00:58:37.515Z,100.00
2023-01-19T01:00:50.085Z,100.00
2023-01-19T01:03:03.161Z,100.00
2023-01-19T01:05:16.390Z,100.00
2023-01-19T01:07:30.133Z,100.00
2023-01-19T01:09:42.654Z,100.00
2023-01-19T01:11:55.251Z,100.00
2023-01-19T01:14:08.509Z,100.00
2023-01-19T01:16:22.871Z,100.00
2023-01-19T01:18:35.552Z,100.00
2023-01-19T01:20:48.788Z,100.00
2023-01-19T01:23:01.784Z,100.00
2023-01-19T01:25:16.089Z,100.00
2023-01-19T01:27:28.619Z,100.00
2023-01-19T01:29:46.420Z,100.00
2023-01-19T01:31:58.993Z,100.00
2023-01-19T01:34:11.548Z,100.00
2023-01-19T01:36:24.138Z,99.96
2023-01-19T01:38:36.630Z,99.97
2023-01-19T01:40:49.551Z,99.88
2023-01-19T01:43:02.816Z,99.93
2023-01-19T01:45:33.539Z,99.78
2023-01-19T01:47:49.885Z,99.46
2023-01-19T01:50:08.296Z,99.64
2023-01-19T01:52:22.900Z,99.68
2023-01-19T01:54:35.647Z,99.27
2023-01-19T01:56:52.179Z,99.61
2023-01-19T01:59:08.728Z,99.69
2023-01-19T02:01:40.538Z,99.48
2023-01-19T02:03:56.142Z,99.78
2023-01-19T02:06:10.094Z,99.73
2023-01-19T02:08:49.853Z,99.76
2023-01-19T02:11:21.403Z,99.49
2023-01-19T02:13:39.850Z,99.32
2023-01-19T02:15:58.463Z,99.08
2023-01-19T02:18:11.275Z,99.60
2023-01-19T02:20:27.991Z,99.51
2023-01-19T02:22:48.882Z,99.29
2023-01-19T02:25:04.815Z,98.83
2023-01-19T02:27:18.039Z,98.52
2023-01-19T02:29:31.235Z,98.58
2023-01-19T02:31:45.523Z,98.64
2023-01-19T02:33:59.814Z,98.60
2023-01-19T02:36:15.148Z,98.11
2023-01-19T02:38:28.685Z,97.98
2023-01-19T02:40:43.590Z,97.88
2023-01-19T02:43:00.850Z,97.43
2023-01-19T02:45:15.404Z,97.27
2023-01-19T02:47:38.884Z,97.26
2023-01-19T02:49:57.081Z,97.23
2023-01-19T02:52:17.552Z,97.00
2023-01-19T02:54:48.110Z,97.22
2023-01-19T02:57:19.130Z,97.38
2023-01-19T02:59:43.883Z,97.66
2023-01-19T03:02:19.374Z,97.59
2023-01-19T03:04:49.349Z,97.68
2023-01-19T03:07:14.224Z,97.62
2023-01-19T03:09:43.784Z,97.55
2023-01-19T03:12:05.844Z,97.90
2023-01-19T03:14:23.542Z,98.11
2023-01-19T03:16:48.510Z,97.90
2023-01-19T03:19:17.486Z,98.08
2023-01-19T03:21:34.006Z,97.96
2023-01-19T03:23:49.560Z,98.38
2023-01-19T03:26:05.215Z,98.27
2023-01-19T03:28:22.765Z,98.35
2023-01-19T03:30:42.036Z,98.64
2023-01-19T03:33:00.448Z,98.65
2023-01-19T03:35:16.619Z,98.95
2023-01-19T03:37:33.545Z,98.88
2023-01-19T03:39:46.175Z,99.08
2023-01-19T03:42:03.057Z,98.97
2023-01-19T03:44:16.830Z,99.06
2023-01-19T03:46:31.619Z,99.39
2023-01-19T03:48:46.029Z,99.49
2023-01-19T03:51:02.423Z,99.67
2023-01-19T03:53:17.053Z,99.93
2023-01-19T03:55:29.852Z,99.69
2023-01-19T03:57:42.423Z,99.88
2023-01-19T03:59:55.817Z,100.00
2023-01-19T04:02:08.449Z,100.00
2023-01-19T04:04:21.151Z,100.00
2023-01-19T04:06:33.739Z,100.00
2023-01-19T04:08:49.085Z,100.00
2023-01-19T04:11:01.771Z,100.00
2023-01-19T04:13:14.334Z,100.00
2023-01-19T04:15:27.878Z,100.00
2023-01-19T04:17:41.811Z,100.00
2023-01-19T04:19:54.362Z,100.00
2023-01-19T04:22:06.909Z,100.00
2023-01-19T04:24:19.540Z,100.00
2023-01-19T04:26:33.115Z,100.00
2023-01-19T04:28:46.001Z,100.00
2023-01-19T04:30:58.634Z,100.00
2023-01-19T04:33:11.166Z,100.00
2023-01-19T04:35:23.779Z,100.00
2023-01-19T04:37:36.264Z,100.00
2023-01-19T04:39:48.792Z,100.00
2023-01-19T04:42:01.616Z,100.00
2023-01-19T04:44:14.565Z,100.00
2023-01-19T04:46:27.114Z,100.00
2023-01-19T04:48:41.311Z,100.00
2023-01-19T04:50:54.732Z,100.00
2023-01-19T04:53:07.754Z,100.00
2023-01-19T04:55:20.274Z,100.00
2023-01-19T04:57:32.852Z,100.00
2023-01-19T04:59:45.394Z,100.00
2023-01-19T05:01:57.966Z,100.00
2023-01-19T05:04:10.542Z,100.00
2023-01-19T05:06:23.110Z,100.00
2023-01-19T05:08:35.751Z,100.00
2023-01-19T05:10:48.411Z,100.00
2023-01-19T05:13:01.315Z,100.00
2023-01-19T05:15:14.046Z,100.00
2023-01-19T05:17:26.561Z,100.00
2023-01-19T05:19:39.189Z,100.00
2023-01-19T05:21:51.841Z,100.00
2023-01-19T05:24:04.475Z,100.00
2023-01-19T05:26:17.055Z,100.00
2023-01-19T05:28:31.257Z,100.00
2023-01-19T05:30:43.892Z,100.00
2023-01-19T05:32:56.440Z,100.00
2023-01-19T05:35:09.553Z,100.00
2023-01-19T05:37:22.099Z,100.00
2023-01-19T05:39:34.681Z,100.00
2023-01-19T05:41:47.715Z,100.00
2023-01-19T05:44:00.501Z,100.00
2023-01-19T05:46:13.394Z,100.00
2023-01-19T05:48:26.021Z,100.00
2023-01-19T05:50:38.548Z,100.00
2023-01-19T05:52:53.277Z,100.00
2023-01-19T05:55:06.326Z,100.00
2023-01-19T05:57:18.989Z,100.00
2023-01-19T05:59:31.590Z,100.00
2023-01-19T06:01:44.195Z,100.00
2023-01-19T06:03:56.763Z,100.00
2023-01-19T06:06:09.387Z,100.00
2023-01-19T06:08:21.894Z,100.00
2023-01-19T06:10:34.706Z,100.00
2023-01-19T06:12:47.303Z,100.00
2023-01-19T06:14:59.928Z,100.00
2023-01-19T06:17:12.653Z,100.00
2023-01-19T06:19:25.310Z,100.00
2023-01-19T06:21:38.236Z,100.00
2023-01-19T06:23:50.848Z,100.00
2023-01-19T06:26:03.726Z,100.00
2023-01-19T06:28:16.295Z,100.00
2023-01-19T06:30:29.067Z,100.00
2023-01-19T06:32:41.656Z,100.00
2023-01-19T06:34:54.290Z,100.00
2023-01-19T06:37:06.936Z,100.00
2023-01-19T06:39:19.504Z,100.00
2023-01-19T06:41:33.401Z,100.00
2023-01-19T06:43:45.963Z,100.00
2023-01-19T06:46:00.352Z,100.00
2023-01-19T06:48:13.203Z,100.00
2023-01-19T06:50:26.030Z,100.00
2023-01-19T06:52:42.334Z,100.00
2023-01-19T06:54:55.505Z,100.00
2023-01-19T06:57:11.763Z,100.00
2023-01-19T06:59:25.529Z,100.00
2023-01-19T07:01:38.306Z,100.00
2023-01-19T07:03:50.964Z,100.00
2023-01-19T07:06:06.438Z,100.00
2023-01-19T07:08:19.006Z,100.00
2023-01-19T07:11:26.575Z,100.00
2023-01-19T07:13:04.686Z,100.00
2023-01-19T07:15:22.572Z,100.00
2023-01-19T07:17:35.100Z,100.00
2023-01-19T07:19:47.802Z,100.00
2023-01-19T07:22:00.601Z,100.00
2023-01-19T07:24:13.113Z,100.00
2023-01-19T07:26:27.992Z,100.00
2023-01-19T07:28:41.641Z,100.00
2023-01-19T07:30:55.442Z,100.00
2023-01-19T07:33:08.437Z,100.00
2023-01-19T07:35:21.941Z,100.00
2023-01-19T07:37:34.500Z,100.00
2023-01-19T07:39:47.088Z,100.00
2023-01-19T07:41:59.729Z,100.00
2023-01-19T07:44:12.229Z,100.00
2023-01-19T07:46:24.823Z,100.00
2023-01-19T07:48:37.493Z,100.00
2023-01-19T07:50:50.013Z,100.00
2023-01-19T07:53:07.270Z,100.00
2023-01-19T07:55:20.754Z,100.00
2023-01-19T07:57:33.294Z,100.00
2023-01-19T07:59:45.874Z,100.00
2023-01-19T08:01:59.551Z,100.00
2023-01-19T08:04:12.355Z,99.98
2023-01-19T08:06:32.646Z,99.98
2023-01-19T08:08:45.188Z,99.94
2023-01-19T08:10:57.806Z,99.94
2023-01-19T08:13:10.335Z,99.78
2023-01-19T08:15:24.610Z,99.34
2023-01-19T08:17:37.192Z,99.08
2023-01-19T08:19:49.737Z,98.72
2023-01-19T08:22:02.349Z,98.58
2023-01-19T08:24:21.360Z,98.54
2023-01-19T08:26:35.736Z,98.33
2023-01-19T08:28:48.341Z,98.12
2023-01-19T08:31:11.153Z,97.95
2023-01-19T08:33:31.033Z,97.52
2023-01-19T08:35:49.005Z,97.53
2023-01-19T08:38:01.675Z,97.45
2023-01-19T08:40:14.483Z,97.27
2023-01-19T08:42:27.274Z,97.46
2023-01-19T08:44:49.741Z,97.24
2023-01-19T08:47:09.563Z,97.32
2023-01-19T08:49:22.220Z,97.00
2023-01-19T08:51:34.905Z,96.93
2023-01-19T08:53:47.928Z,96.79
2023-01-19T08:56:03.163Z,96.34
2023-01-19T08:58:17.389Z,96.43
2023-01-19T09:00:34.350Z,96.56
2023-01-19T09:02:47.327Z,96.25
2023-01-19T09:05:00.152Z,95.85
2023-01-19T09:07:12.812Z,95.53
2023-01-19T09:09:25.339Z,95.50
2023-01-19T09:11:38.019Z,95.28
2023-01-19T09:13:50.785Z,94.73
2023-01-19T09:16:04.237Z,94.48
2023-01-19T09:18:19.283Z,94.63
2023-01-19T09:20:33.762Z,94.30
2023-01-19T09:22:47.544Z,93.81
2023-01-19T09:25:00.347Z,93.20
2023-01-19T09:27:13.323Z,92.29
2023-01-19T09:29:25.947Z,91.59
2023-01-19T09:31:40.193Z,90.86
2023-01-19T09:33:52.809Z,90.60
2023-01-19T09:36:05.777Z,90.39
2023-01-19T09:38:19.963Z,89.64
2023-01-19T09:40:32.727Z,88.90
2023-01-19T09:42:52.595Z,89.02
2023-01-19T09:45:12.182Z,88.26
2023-01-19T09:47:28.310Z,88.26
2023-01-19T09:49:55.091Z,87.82
2023-01-19T09:52:11.217Z,88.39
2023-01-19T09:54:52.942Z,87.97
2023-01-19T09:57:11.035Z,87.19
2023-01-19T09:59:29.879Z,86.10
2023-01-19T10:02:00.206Z,85.59
2023-01-19T10:04:18.605Z,85.36
2023-01-19T10:06:31.648Z,84.34
2023-01-19T10:09:00.881Z,84.43
2023-01-19T10:11:34.516Z,83.81
2023-01-19T10:13:55.864Z,82.46
2023-01-19T10:16:34.861Z,82.82
2023-01-19T10:18:51.625Z,82.74
2023-01-19T10:21:13.090Z,81.81
2023-01-19T10:23:44.052Z,81.79
2023-01-19T10:26:00.413Z,81.69
2023-01-19T10:28:14.974Z,81.25
2023-01-19T10:30:30.125Z,79.81
2023-01-19T10:32:44.457Z,79.77
2023-01-19T10:34:59.501Z,79.81
2023-01-19T10:37:37.900Z,79.10
2023-01-19T10:39:57.126Z,78.47
2023-01-19T10:42:15.148Z,78.39
2023-01-19T10:44:33.964Z,77.68
2023-01-19T10:46:49.015Z,77.43
2023-01-19T10:49:02.211Z,76.55
2023-01-19T10:51:15.152Z,76.00
2023-01-19T10:53:30.582Z,75.91
2023-01-19T10:55:44.070Z,75.07
2023-01-19T10:57:57.832Z,74.73
2023-01-19T11:00:39.345Z,74.80
2023-01-19T11:02:52.064Z,74.86
2023-01-19T11:05:24.124Z,74.28
2023-01-19T11:07:36.782Z,74.07
2023-01-19T11:09:50.539Z,73.44
2023-01-19T11:12:03.298Z,73.16
2023-01-19T11:14:20.930Z,72.66
2023-01-19T11:16:35.187Z,72.11
2023-01-19T11:18:52.441Z,71.42
2023-01-19T11:21:12.200Z,71.59
2023-01-19T11:23:28.445Z,70.53
2023-01-19T11:25:46.332Z,70.27
2023-01-19T11:27:59.638Z,70.36
2023-01-19T11:30:22.248Z,68.72
2023-01-19T11:32:36.999Z,68.47
2023-01-19T11:34:50.467Z,68.85
2023-01-19T11:37:18.409Z,68.40
2023-01-19T11:39:46.612Z,68.14
2023-01-19T11:42:02.565Z,68.25
2023-01-19T11:44:23.769Z,68.04
2023-01-19T11:46:39.649Z,67.40
2023-01-19T11:49:19.890Z,66.23
2023-01-19T11:51:43.521Z,64.84
2023-01-19T11:53:56.220Z,65.44
2023-01-19T11:56:14.948Z,65.28
2023-01-19T11:58:27.781Z,65.45
2023-01-19T12:00:46.268Z,65.00
2023-01-19T12:03:16.006Z,64.86
2023-01-19T12:05:33.228Z,64.78
2023-01-19T12:07:48.997Z,64.07
2023-01-19T12:10:20.760Z,63.79
2023-01-19T12:12:36.594Z,63.85
2023-01-19T12:14:59.490Z,63.82
2023-01-19T12:17:20.036Z,63.63
2023-01-19T12:19:46.183Z,63.47
2023-01-19T12:21:59.578Z,63.11
2023-01-19T12:24:40.470Z,62.71
2023-01-19T12:26:56.208Z,62.48
2023-01-19T12:29:14.057Z,61.77
2023-01-19T12:31:27.722Z,61.62
2023-01-19T12:33:40.606Z,61.53
2023-01-19T12:35:55.545Z,61.56
2023-01-19T12:38:43.555Z,60.73
2023-01-19T12:41:34.506Z,60.97
2023-01-19T12:43:48.519Z,60.68
2023-01-19T12:46:02.055Z,60.46
2023-01-19T12:48:25.275Z,59.95
2023-01-19T12:50:38.562Z,59.59
2023-01-19T12:53:02.072Z,59.41
2023-01-19T12:55:14.651Z,59.41
2023-01-19T12:57:30.376Z,58.95
2023-01-19T12:59:43.302Z,57.99
2023-01-19T13:02:20.887Z,58.37
2023-01-19T13:04:33.988Z,58.34
2023-01-19T13:06:49.568Z,57.85
2023-01-19T13:09:02.431Z,57.95
2023-01-19T13:11:18.030Z,57.87
2023-01-19T13:13:50.142Z,57.91
2023-01-19T13:16:18.065Z,58.10
2023-01-19T13:18:35.355Z,57.84
2023-01-19T13:20:56.191Z,58.15
2023-01-19T13:23:27.585Z,57.97
2023-01-19T13:25:41.308Z,57.64
2023-01-19T13:27:54.596Z,57.36
2023-01-19T13:30:12.656Z,56.91
2023-01-19T13:32:25.681Z,56.21
2023-01-19T13:34:49.015Z,56.59
2023-01-19T13:37:02.034Z,56.86
2023-01-19T13:39:19.987Z,56.76
2023-01-19T13:41:40.211Z,57.14
2023-01-19T13:44:01.369Z,57.66
2023-01-19T13:46:17.346Z,57.79
2023-01-19T13:48:31.501Z,57.93
2023-01-19T13:50:56.901Z,57.85
2023-01-19T13:53:20.684Z,58.11
2023-01-19T13:55:33.506Z,58.04
2023-01-19T13:57:48.168Z,58.08
2023-01-19T14:00:17.193Z,58.09
2023-01-19T14:02:29.968Z,58.11
2023-01-19T14:04:42.794Z,58.53
2023-01-19T14:06:58.697Z,58.41
2023-01-19T14:09:17.893Z,58.51
2023-01-19T14:11:30.482Z,58.54
2023-01-19T14:13:44.863Z,58.37
2023-01-19T14:16:00.927Z,58.39
2023-01-19T14:18:16.606Z,58.31
2023-01-19T14:20:30.565Z,58.27
2023-01-19T14:22:45.862Z,58.06
2023-01-19T14:25:26.119Z,58.13
2023-01-19T14:27:39.155Z,58.19
2023-01-19T14:29:54.736Z,58.15
2023-01-19T14:32:17.282Z,58.52
2023-01-19T14:34:48.202Z,58.54
2023-01-19T14:37:03.057Z,58.72
2023-01-19T14:39:23.313Z,58.68
2023-01-19T14:41:44.439Z,58.29
2023-01-19T14:43:58.947Z,58.28
2023-01-19T14:46:19.188Z,57.99
2023-01-19T14:48:32.133Z,57.99
2023-01-19T14:51:01.335Z,57.99
2023-01-19T14:53:18.742Z,58.07
2023-01-19T14:55:56.693Z,58.05
2023-01-19T14:58:14.161Z,58.40
2023-01-19T15:00:27.140Z,58.30
2023-01-19T15:02:39.792Z,58.08
2023-01-19T15:04:55.293Z,57.71
2023-01-19T15:07:17.056Z,57.79
2023-01-19T15:09:29.777Z,57.72
2023-01-19T15:11:43.476Z,57.71
2023-01-19T15:13:56.120Z,57.88
2023-01-19T15:16:11.659Z,58.15
2023-01-19T15:18:26.875Z,58.39
2023-01-19T15:20:40.597Z,58.68
2023-01-19T15:22:53.185Z,58.84
2023-01-19T15:25:06.624Z,58.88
2023-01-19T15:27:21.681Z,59.15
2023-01-19T15:29:34.477Z,59.38
2023-01-19T15:31:47.567Z,59.49
2023-01-19T15:34:00.303Z,59.84
2023-01-19T15:36:17.728Z,60.03
2023-01-19T15:38:30.643Z,60.39
2023-01-19T15:40:43.537Z,61.18
2023-01-19T15:42:56.098Z,61.34
2023-01-19T15:45:29.768Z,61.82
2023-01-19T15:47:42.369Z,62.20
2023-01-19T15:49:54.901Z,62.69
2023-01-19T15:52:07.451Z,62.67
2023-01-19T15:54:20.076Z,63.10
2023-01-19T15:56:32.625Z,63.83
2023-01-19T15:58:46.033Z,64.08
2023-01-19T16:00:58.925Z,64.11
2023-01-19T16:03:11.540Z,64.44
2023-01-19T16:05:37.465Z,64.64
2023-01-19T16:07:54.888Z,64.74
2023-01-19T16:10:09.528Z,64.92
2023-01-19T16:12:22.178Z,65.14
2023-01-19T16:14:34.695Z,65.40
2023-01-19T16:16:47.284Z,65.58
2023-01-19T16:19:00.096Z,65.90
2023-01-19T16:21:12.810Z,66.15
2023-01-19T16:23:25.515Z,66.60
2023-01-19T16:25:38.130Z,67.17
2023-01-19T16:27:50.741Z,67.43
2023-01-19T16:30:05.291Z,67.91
2023-01-19T16:32:18.202Z,68.38
2023-01-19T16:34:31.137Z,68.55
2023-01-19T16:37:19.703Z,68.52
2023-01-19T16:39:32.378Z,68.24
2023-01-19T16:41:46.012Z,68.93
2023-01-19T16:43:58.905Z,68.79
2023-01-19T16:47:19.564Z,69.58
2023-01-19T16:49:32.490Z,69.52
2023-01-19T16:51:45.921Z,69.84
2023-01-19T16:53:58.885Z,70.46
2023-01-19T16:56:14.466Z,71.07
2023-01-19T16:58:27.125Z,71.21
2023-01-19T17:00:39.683Z,71.87
2023-01-19T17:02:52.175Z,71.58
2023-01-19T17:05:05.187Z,71.73
2023-01-19T17:07:19.225Z,71.93
2023-01-19T17:09:32.037Z,72.16
2023-01-19T17:11:45.120Z,72.59
2023-01-19T17:14:03.259Z,72.59
2023-01-19T17:16:16.571Z,72.84
2023-01-19T17:18:34.416Z,73.14
2023-01-19T17:20:46.927Z,73.16
2023-01-19T17:22:59.732Z,73.34
2023-01-19T17:25:12.250Z,73.57
2023-01-19T17:27:24.897Z,73.52
2023-01-19T17:29:37.594Z,73.67
2023-01-19T17:31:51.044Z,73.86
2023-01-19T17:34:04.049Z,73.76
2023-01-19T17:36:22.991Z,73.90
2023-01-19T17:38:36.180Z,74.13
2023-01-19T17:40:48.703Z,74.30
2023-01-19T17:43:01.213Z,74.55
2023-01-19T17:45:15.006Z,74.67
2023-01-19T17:47:27.553Z,74.55
2023-01-19T17:49:40.242Z,75.34
2023-01-19T17:51:54.522Z,75.39
2023-01-19T17:54:07.430Z,75.61
2023-01-19T17:56:22.711Z,76.16
2023-01-19T17:58:35.452Z,76.18
2023-01-19T18:00:48.108Z,76.29
2023-01-19T18:03:00.965Z,76.25
2023-01-19T18:05:14.918Z,76.75
2023-01-19T18:07:28.577Z,77.13
2023-01-19T18:09:41.124Z,76.30
2023-01-19T18:11:53.840Z,76.85
2023-01-19T18:14:06.718Z,76.73
2023-01-19T18:16:23.139Z,76.77
2023-01-19T18:18:36.637Z,76.88
2023-01-19T18:20:49.388Z,76.85
2023-01-19T18:23:02.197Z,77.21
2023-01-19T18:25:14.848Z,76.89
2023-01-19T18:27:29.110Z,77.23
2023-01-19T18:29:42.854Z,76.99
2023-01-19T18:31:55.480Z,77.78
2023-01-19T18:34:08.233Z,77.32
2023-01-19T18:36:20.791Z,78.36
2023-01-19T18:38:34.321Z,78.00
2023-01-19T18:40:47.163Z,77.94
2023-01-19T18:42:59.701Z,78.01
2023-01-19T18:45:12.274Z,77.94
2023-01-19T18:47:24.838Z,77.54
2023-01-19T18:49:37.589Z,77.98
2023-01-19T18:51:50.300Z,78.28
2023-01-19T18:54:02.968Z,77.79
2023-01-19T18:56:16.384Z,78.55
2023-01-19T18:58:31.688Z,78.53
2023-01-19T19:00:44.535Z,78.77
2023-01-19T19:02:58.085Z,78.63
2023-01-19T19:05:11.153Z,79.03
2023-01-19T19:07:23.860Z,79.39
2023-01-19T19:09:36.898Z,79.34
2023-01-19T19:11:49.396Z,80.01
2023-01-19T19:14:03.510Z,79.92
2023-01-19T19:16:16.271Z,80.06
2023-01-19T19:18:29.198Z,80.42
2023-01-19T19:20:44.386Z,80.48
2023-01-19T19:22:56.919Z,80.47
2023-01-19T19:25:09.680Z,81.05
2023-01-19T19:27:22.385Z,80.99
2023-01-19T19:29:35.133Z,81.05
2023-01-19T19:31:47.835Z,81.56
2023-01-19T19:34:00.468Z,81.66
2023-01-19T19:36:13.230Z,81.91
2023-01-19T19:38:27.199Z,82.00
2023-01-19T19:40:39.938Z,81.91
2023-01-19T19:42:52.948Z,82.18
2023-01-19T19:45:05.913Z,82.81
2023-01-19T19:47:19.185Z,83.34
2023-01-19T19:49:31.797Z,83.46
2023-01-19T19:51:44.461Z,83.54
2023-01-19T19:53:59.365Z,83.62
2023-01-19T19:56:13.236Z,83.77
2023-01-19T19:58:26.976Z,83.59
2023-01-19T20:00:39.842Z,83.64
2023-01-19T20:02:52.606Z,83.66
2023-01-19T20:05:05.893Z,83.57
2023-01-19T20:07:18.712Z,83.80
2023-01-19T20:09:32.658Z,84.01
2023-01-19T20:11:46.808Z,84.25
2023-01-19T20:13:59.407Z,84.20
2023-01-19T20:16:14.691Z,84.45
2023-01-19T20:18:27.407Z,84.58
2023-01-19T20:20:40.235Z,84.90
2023-01-19T20:22:52.873Z,84.92
2023-01-19T20:25:06.264Z,85.08
2023-01-19T20:27:18.889Z,85.49
2023-01-19T20:29:31.683Z,85.24
2023-01-19T20:31:47.204Z,85.18
2023-01-19T20:34:02.774Z,84.82
2023-01-19T20:36:16.164Z,84.77
2023-01-19T20:38:29.038Z,84.73
2023-01-19T20:40:41.817Z,84.67
2023-01-19T20:42:54.631Z,84.86
2023-01-19T20:45:08.574Z,84.77
2023-01-19T20:47:22.529Z,84.72
2023-01-19T20:49:36.042Z,84.78
2023-01-19T20:51:49.921Z,84.87
2023-01-19T20:54:02.471Z,85.03
2023-01-19T20:56:15.531Z,85.14
2023-01-19T20:58:31.161Z,84.99
2023-01-19T21:00:44.605Z,85.05
2023-01-19T21:02:57.526Z,85.13
2023-01-19T21:05:10.590Z,85.02
2023-01-19T21:07:23.283Z,85.22
2023-01-19T21:09:38.067Z,85.16
2023-01-19T21:11:50.633Z,84.93
2023-01-19T21:14:03.862Z,85.21
2023-01-19T21:16:16.431Z,85.34
2023-01-19T21:18:29.381Z,85.18
2023-01-19T21:20:42.247Z,85.48
2023-01-19T21:22:55.131Z,85.88
2023-01-19T21:25:08.184Z,85.75
2023-01-19T21:27:21.045Z,85.96
2023-01-19T21:29:33.919Z,86.10
2023-01-19T21:31:46.585Z,86.11
2023-01-19T21:33:59.362Z,86.54
2023-01-19T21:36:12.271Z,86.16
2023-01-19T21:38:27.302Z,86.21
2023-01-19T21:40:40.122Z,86.17
2023-01-19T21:42:52.799Z,86.52
2023-01-19T21:45:06.409Z,86.87
2023-01-19T21:47:19.103Z,87.00
2023-01-19T21:49:31.812Z,86.47
2023-01-19T21:51:45.586Z,86.87
2023-01-19T21:54:00.381Z,86.82
2023-01-19T21:56:12.949Z,86.94
2023-01-19T21:58:26.077Z,87.16
2023-01-19T22:00:39.110Z,86.67
2023-01-19T22:03:03.183Z,87.10
2023-01-19T22:05:16.309Z,86.87
2023-01-19T22:07:28.858Z,87.06
2023-01-19T22:09:41.423Z,87.47
2023-01-19T22:11:54.039Z,86.92
2023-01-19T22:14:06.760Z,87.33
2023-01-19T22:16:21.367Z,87.44
2023-01-19T22:18:36.031Z,87.75
2023-01-19T22:20:48.678Z,87.39
2023-01-19T22:23:01.196Z,87.79
2023-01-19T22:25:14.958Z,87.58
2023-01-19T22:27:28.540Z,87.33
2023-01-19T22:29:41.081Z,87.78
2023-01-19T22:31:53.721Z,87.99
2023-01-19T22:34:10.392Z,87.95
2023-01-19T22:36:35.673Z,87.93
2023-01-19T22:38:51.569Z,87.79
2023-01-19T22:41:17.736Z,88.08
2023-01-19T22:43:30.332Z,88.01
2023-01-19T22:45:43.253Z,88.48
2023-01-19T22:47:55.757Z,88.12
2023-01-19T22:50:08.957Z,88.44
2023-01-19T22:52:21.509Z,88.72
2023-01-19T22:54:34.110Z,88.64
2023-01-19T22:56:46.666Z,88.88
2023-01-19T22:58:59.823Z,89.20
2023-01-19T23:01:18.057Z,89.21
2023-01-19T23:03:30.689Z,89.24
2023-01-19T23:05:43.316Z,89.68
2023-01-19T23:07:55.843Z,89.70
2023-01-19T23:10:09.005Z,89.73
2023-01-19T23:12:21.570Z,89.93
2023-01-19T23:14:34.647Z,89.90
2023-01-19T23:16:47.508Z,89.49
2023-01-19T23:19:00.662Z,89.44
2023-01-19T23:21:16.850Z,89.26
2023-01-19T23:23:29.430Z,89.27
2023-01-19T23:25:41.976Z,89.68
2023-01-19T23:27:54.474Z,89.96
2023-01-19T23:30:07.924Z,90.00
2023-01-19T23:32:20.556Z,89.49
2023-01-19T23:34:33.107Z,89.67
2023-01-19T23:36:45.769Z,89.46
2023-01-19T23:39:00.955Z,89.25
2023-01-19T23:41:13.590Z,89.45
2023-01-19T23:43:26.801Z,89.85
2023-01-19T23:45:39.317Z,89.75
2023-01-19T23:47:51.844Z,89.73
2023-01-19T23:50:05.160Z,89.67
2023-01-19T23:52:17.694Z,89.73
2023-01-19T23:54:30.417Z,89.68
2023-01-19T23:56:43.038Z,89.64
2023-01-19T23:59:07.686Z,89.95
